createdAt,value
2018-09-15T00:00:57.298Z,22.40
2018-09-15T00:03:25.238Z,22.40
2018-09-15T00:05:52.712Z,22.40
2018-09-15T00:08:20.125Z,22.40
2018-09-15T00:10:47.715Z,22.40
2018-09-15T00:13:15.584Z,22.40
2018-09-15T00:15:43.022Z,22.50
2018-09-15T00:18:12.317Z,22.50
2018-09-15T00:20:39.788Z,22.50
2018-09-15T00:23:07.743Z,22.50
2018-09-15T00:25:35.153Z,22.50
2018-09-15T00:28:02.584Z,22.50
2018-09-15T00:30:30.054Z,22.50
2018-09-15T00:32:57.469Z,22.50
2018-09-15T00:35:24.862Z,22.50
2018-09-15T00:37:52.277Z,22.60
2018-09-15T00:40:19.704Z,22.60
2018-09-15T00:42:47.427Z,22.60
2018-09-15T00:45:14.958Z,22.60
2018-09-15T00:47:42.427Z,22.60
2018-09-15T00:50:09.828Z,22.60
2018-09-15T00:52:37.293Z,22.60
2018-09-15T00:55:04.860Z,22.60
2018-09-15T00:57:32.269Z,22.60
2018-09-15T00:59:59.735Z,22.60
2018-09-15T01:02:27.218Z,22.60
2018-09-15T01:04:54.650Z,22.60
2018-09-15T01:07:22.067Z,22.60
2018-09-15T01:09:49.495Z,22.20
2018-09-15T01:12:16.937Z,22.60
2018-09-15T01:14:44.434Z,22.50
2018-09-15T01:17:11.854Z,22.50
2018-09-15T01:19:39.419Z,22.50
2018-09-15T01:22:07.210Z,22.50
2018-09-15T01:24:34.684Z,22.40
2018-09-15T01:27:02.121Z,22.30
2018-09-15T01:29:29.528Z,22.30
2018-09-15T01:31:56.953Z,22.20
2018-09-15T01:34:24.401Z,22.00
2018-09-15T01:36:51.814Z,22.10
2018-09-15T01:39:19.279Z,22.10
2018-09-15T01:41:46.667Z,22.00
2018-09-15T01:44:14.125Z,22.00
2018-09-15T01:46:41.515Z,22.00
2018-09-15T01:49:08.931Z,22.00
2018-09-15T01:51:36.383Z,22.00
2018-09-15T01:54:03.809Z,22.10
2018-09-15T01:56:31.268Z,22.10
2018-09-15T01:58:58.697Z,22.10
2018-09-15T02:01:26.117Z,22.10
2018-09-15T02:03:53.499Z,22.10
2018-09-15T02:06:20.906Z,22.20
2018-09-15T02:08:48.291Z,22.20
2018-09-15T02:11:15.713Z,22.20
2018-09-15T02:13:43.167Z,22.20
2018-09-15T02:16:10.603Z,22.30
2018-09-15T02:18:38.003Z,22.20
2018-09-15T02:21:05.541Z,22.30
2018-09-15T02:23:32.963Z,22.30
2018-09-15T02:26:00.348Z,22.30
2018-09-15T02:28:27.798Z,22.30
2018-09-15T02:30:55.234Z,22.30
2018-09-15T02:33:22.643Z,22.40
2018-09-15T02:35:50.090Z,22.30
2018-09-15T02:38:17.485Z,22.30
2018-09-15T02:40:44.887Z,22.30
2018-09-15T02:43:12.320Z,22.30
2018-09-15T02:45:39.757Z,22.30
2018-09-15T02:48:07.153Z,22.30
2018-09-15T02:50:34.576Z,22.30
2018-09-15T02:53:01.972Z,22.30
2018-09-15T02:55:29.417Z,22.30
2018-09-15T02:57:56.827Z,22.20
2018-09-15T03:00:24.235Z,22.20
2018-09-15T03:02:51.739Z,22.20
2018-09-15T03:05:19.161Z,22.20
2018-09-15T03:07:46.637Z,22.20
2018-09-15T03:10:14.022Z,22.20
2018-09-15T03:12:41.490Z,22.10
2018-09-15T03:15:08.950Z,22.10
2018-09-15T03:17:36.374Z,22.10
2018-09-15T03:20:04.484Z,22.10
2018-09-15T03:22:31.967Z,22.00
2018-09-15T03:24:59.385Z,22.10
2018-09-15T03:27:26.844Z,22.10
2018-09-15T03:29:54.267Z,22.00
2018-09-15T03:32:21.710Z,22.00
2018-09-15T03:34:49.120Z,22.00
2018-09-15T03:37:16.526Z,22.00
2018-09-15T03:39:43.978Z,22.00
2018-09-15T03:42:11.377Z,22.00
2018-09-15T03:44:38.795Z,22.00
2018-09-15T03:47:06.218Z,21.90
2018-09-15T03:49:33.664Z,21.90
2018-09-15T03:52:01.107Z,21.90
2018-09-15T03:54:28.542Z,21.90
2018-09-15T03:56:55.951Z,21.90
2018-09-15T03:59:23.371Z,21.90
2018-09-15T04:01:50.795Z,21.90
2018-09-15T04:04:18.220Z,21.90
2018-09-15T04:06:45.613Z,21.90
2018-09-15T04:09:13.042Z,21.90
2018-09-15T04:11:40.474Z,21.80
2018-09-15T04:14:08.413Z,21.80
2018-09-15T04:16:35.856Z,21.80
2018-09-15T04:19:03.328Z,21.80
2018-09-15T04:21:30.743Z,21.80
2018-09-15T04:23:58.239Z,21.90
2018-09-15T04:26:25.641Z,21.90
2018-09-15T04:28:53.034Z,21.90
2018-09-15T04:31:20.507Z,21.90
2018-09-15T04:33:47.966Z,21.90
2018-09-15T04:36:15.404Z,21.90
2018-09-15T04:38:42.830Z,21.90
2018-09-15T04:41:10.259Z,21.90
2018-09-15T04:43:37.665Z,21.90
2018-09-15T04:46:05.516Z,21.90
2018-09-15T04:48:32.952Z,21.90
2018-09-15T04:51:00.392Z,21.90
2018-09-15T04:53:27.807Z,21.90
2018-09-15T04:55:55.291Z,21.90
2018-09-15T04:58:22.719Z,21.90
2018-09-15T05:00:50.308Z,21.90
2018-09-15T05:03:17.778Z,21.90
2018-09-15T05:05:45.205Z,21.90
2018-09-15T05:08:12.621Z,21.90
2018-09-15T05:10:40.038Z,21.90
2018-09-15T05:13:07.591Z,21.90
2018-09-15T05:15:35.036Z,22.00
2018-09-15T05:18:02.516Z,22.00
2018-09-15T05:20:29.927Z,22.00
2018-09-15T05:22:57.362Z,22.00
2018-09-15T05:25:24.787Z,22.00
2018-09-15T05:27:52.233Z,22.00
2018-09-15T05:30:19.619Z,21.90
2018-09-15T05:32:47.040Z,22.00
2018-09-15T05:35:14.482Z,22.00
2018-09-15T05:37:41.903Z,22.00
2018-09-15T05:40:09.310Z,21.90
2018-09-15T05:42:36.744Z,22.00
2018-09-15T05:45:04.263Z,22.00
2018-09-15T05:47:31.679Z,22.00
2018-09-15T05:49:59.147Z,22.00
2018-09-15T05:52:26.573Z,22.00
2018-09-15T05:54:54.075Z,22.00
2018-09-15T05:57:21.577Z,22.10
2018-09-15T05:59:48.999Z,22.10
2018-09-15T06:02:16.435Z,22.10
2018-09-15T06:04:43.885Z,22.10
2018-09-15T06:07:11.292Z,22.20
2018-09-15T06:09:38.714Z,22.20
2018-09-15T06:12:06.219Z,22.20
2018-09-15T06:14:33.629Z,22.20
2018-09-15T06:17:01.133Z,22.20
2018-09-15T06:19:29.370Z,22.20
2018-09-15T06:21:56.838Z,22.70
2018-09-15T06:24:24.310Z,22.30
2018-09-15T06:26:51.762Z,22.30
2018-09-15T06:29:19.177Z,22.40
2018-09-15T06:31:49.516Z,22.20
2018-09-15T06:34:22.170Z,22.40
2018-09-15T06:36:49.679Z,22.40
2018-09-15T06:39:17.170Z,22.40
2018-09-15T06:41:45.465Z,22.50
2018-09-15T06:44:12.923Z,22.50
2018-09-15T06:46:40.394Z,22.50
2018-09-15T06:49:07.855Z,22.50
2018-09-15T06:51:35.287Z,22.60
2018-09-15T06:54:02.757Z,22.50
2018-09-15T06:56:30.162Z,22.60
2018-09-15T06:58:57.578Z,22.60
2018-09-15T07:01:25.078Z,22.70
2018-09-15T07:03:52.532Z,22.70
2018-09-15T07:06:20.903Z,22.70
2018-09-15T07:08:48.324Z,22.70
2018-09-15T07:11:15.814Z,22.80
2018-09-15T07:13:43.238Z,22.80
2018-09-15T07:16:10.693Z,22.90
2018-09-15T07:18:39.652Z,22.90
2018-09-15T07:21:07.175Z,24.90
2018-09-15T07:23:34.613Z,22.70
2018-09-15T07:26:02.204Z,23.00
2018-09-15T07:28:29.594Z,21.40
2018-09-15T07:30:57.124Z,23.00
2018-09-15T07:33:24.627Z,23.00
2018-09-15T07:35:52.139Z,23.10
2018-09-15T07:38:20.120Z,23.10
2018-09-15T07:40:47.570Z,23.10
2018-09-15T07:43:15.023Z,23.10
2018-09-15T07:45:42.461Z,23.10
2018-09-15T07:48:09.932Z,23.10
2018-09-15T07:50:37.380Z,23.10
2018-09-15T07:53:04.924Z,23.10
2018-09-15T07:55:32.315Z,23.10
2018-09-15T07:57:59.896Z,23.10
2018-09-15T08:00:27.304Z,23.10
2018-09-15T08:02:54.801Z,23.10
2018-09-15T08:05:22.353Z,23.10
2018-09-15T08:07:49.794Z,23.10
2018-09-15T08:10:17.274Z,23.20
2018-09-15T08:12:44.806Z,23.20
2018-09-15T08:15:12.256Z,23.20
2018-09-15T08:17:39.714Z,23.20
2018-09-15T08:20:07.194Z,23.20
2018-09-15T08:22:34.638Z,23.20
2018-09-15T08:25:02.066Z,23.20
2018-09-15T08:27:29.535Z,23.20
2018-09-15T08:29:57.010Z,23.20
2018-09-15T08:32:24.431Z,23.20
2018-09-15T08:34:52.242Z,23.20
2018-09-15T08:37:19.808Z,23.20
2018-09-15T08:39:47.415Z,23.20
2018-09-15T08:42:15.195Z,23.20
2018-09-15T08:44:42.651Z,23.20
2018-09-15T08:47:10.633Z,23.30
2018-09-15T08:49:38.079Z,23.30
2018-09-15T08:52:05.654Z,23.30
2018-09-15T08:54:33.059Z,23.40
2018-09-15T08:57:00.459Z,23.40
2018-09-15T08:59:27.884Z,23.40
2018-09-15T09:01:55.305Z,23.50
2018-09-15T09:04:22.791Z,23.50
2018-09-15T09:06:50.213Z,23.50
2018-09-15T09:09:17.663Z,23.60
2018-09-15T09:11:45.176Z,23.50
2018-09-15T09:14:12.705Z,23.70
2018-09-15T09:16:40.159Z,23.80
2018-09-15T09:19:28.997Z,24.00
2018-09-15T09:21:56.546Z,24.20
2018-09-15T09:24:24.545Z,24.40
2018-09-15T09:26:51.944Z,24.50
2018-09-15T09:29:19.407Z,24.70
2018-09-15T09:31:46.817Z,24.80
2018-09-15T09:34:14.203Z,24.80
2018-09-15T09:36:41.621Z,25.00
2018-09-15T09:39:10.976Z,25.10
2018-09-15T09:41:38.396Z,25.30
2018-09-15T09:44:06.145Z,25.40
2018-09-15T09:46:33.859Z,25.50
2018-09-15T09:49:01.625Z,25.60
2018-09-15T09:51:29.088Z,25.70
2018-09-15T09:53:56.521Z,25.80
2018-09-15T09:56:24.560Z,25.90
2018-09-15T09:58:51.974Z,25.90
2018-09-15T10:01:25.200Z,25.90
2018-09-15T10:03:52.584Z,25.90
2018-09-15T10:06:20.019Z,25.90
2018-09-15T10:08:47.434Z,25.80
2018-09-15T10:11:14.832Z,25.90
2018-09-15T10:13:42.531Z,26.10
2018-09-15T10:16:09.957Z,26.40
2018-09-15T10:18:37.442Z,26.80
2018-09-15T10:21:05.724Z,27.10
2018-09-15T10:23:33.238Z,27.40
2018-09-15T10:26:00.679Z,27.50
2018-09-15T10:28:28.068Z,27.60
2018-09-15T10:30:55.512Z,27.60
2018-09-15T10:33:22.990Z,27.50
2018-09-15T10:35:50.470Z,27.40
2018-09-15T10:38:17.998Z,27.30
2018-09-15T10:40:45.347Z,27.20
2018-09-15T10:43:12.816Z,27.10
2018-09-15T10:45:40.281Z,26.90
2018-09-15T10:48:07.722Z,26.80
2018-09-15T10:50:35.244Z,26.70
2018-09-15T10:53:02.722Z,26.70
2018-09-15T10:55:30.152Z,26.70
2018-09-15T10:57:57.575Z,26.60
2018-09-15T11:00:25.059Z,26.60
2018-09-15T11:02:52.456Z,26.60
2018-09-15T11:05:19.889Z,26.50
2018-09-15T11:07:47.359Z,26.50
2018-09-15T11:10:14.903Z,26.50
2018-09-15T11:12:42.382Z,26.40
2018-09-15T11:15:09.830Z,26.40
2018-09-15T11:17:37.273Z,26.40
2018-09-15T11:20:04.977Z,26.50
2018-09-15T11:22:32.439Z,26.60
2018-09-15T11:24:59.885Z,26.80
2018-09-15T11:27:27.321Z,26.90
2018-09-15T11:29:54.759Z,27.00
2018-09-15T11:32:22.245Z,27.10
2018-09-15T11:34:49.715Z,27.10
2018-09-15T11:37:17.195Z,27.20
2018-09-15T11:39:44.681Z,27.20
2018-09-15T11:42:12.097Z,27.20
2018-09-15T11:44:39.528Z,27.20
2018-09-15T11:47:07.044Z,27.10
2018-09-15T11:49:34.462Z,27.10
2018-09-15T11:52:01.898Z,27.10
2018-09-15T11:54:29.408Z,26.90
2018-09-15T11:56:56.842Z,26.90
2018-09-15T11:59:24.371Z,26.90
2018-09-15T12:01:51.852Z,27.00
2018-09-15T12:04:19.281Z,27.20
2018-09-15T12:06:46.778Z,27.50
2018-09-15T12:09:14.270Z,28.00
2018-09-15T12:11:41.905Z,28.50
2018-09-15T12:14:09.404Z,29.00
2018-09-15T12:16:36.839Z,29.40
2018-09-15T12:19:04.306Z,29.80
2018-09-15T12:21:31.820Z,30.10
2018-09-15T12:23:59.209Z,30.30
2018-09-15T12:26:26.652Z,30.40
2018-09-15T12:28:54.076Z,30.30
2018-09-15T12:31:21.511Z,30.30
2018-09-15T12:33:48.947Z,30.10
2018-09-15T12:36:16.374Z,30.00
2018-09-15T12:38:44.321Z,30.00
2018-09-15T12:41:11.736Z,30.00
2018-09-15T12:43:39.181Z,30.00
2018-09-15T12:46:06.646Z,30.00
2018-09-15T12:48:34.184Z,30.00
2018-09-15T12:51:01.613Z,29.80
2018-09-15T12:53:29.095Z,29.70
2018-09-15T12:55:56.532Z,29.50
2018-09-15T12:58:23.934Z,29.30
2018-09-15T13:00:51.364Z,29.10
2018-09-15T13:03:18.783Z,28.90
2018-09-15T13:05:46.368Z,28.70
2018-09-15T13:08:13.823Z,28.60
2018-09-15T13:10:41.236Z,28.40
2018-09-15T13:13:08.776Z,28.20
2018-09-15T13:15:36.210Z,28.20
2018-09-15T13:18:03.652Z,28.20
2018-09-15T13:20:31.058Z,28.10
2018-09-15T13:22:58.485Z,28.60
2018-09-15T13:25:25.912Z,28.90
2018-09-15T13:27:53.340Z,29.10
2018-09-15T13:30:20.893Z,29.70
2018-09-15T13:32:48.246Z,30.20
2018-09-15T13:35:15.682Z,30.70
2018-09-15T13:37:43.129Z,31.10
2018-09-15T13:40:10.554Z,31.40
2018-09-15T13:42:37.980Z,31.50
2018-09-15T13:45:05.472Z,31.60
2018-09-15T13:47:33.033Z,31.80
2018-09-15T13:50:00.449Z,31.80
2018-09-15T13:52:27.899Z,31.80
2018-09-15T13:54:55.328Z,31.80
2018-09-15T13:57:22.758Z,31.60
2018-09-15T13:59:50.134Z,31.50
2018-09-15T14:02:18.256Z,31.30
2018-09-15T14:04:45.756Z,31.00
2018-09-15T14:07:13.157Z,30.80
2018-09-15T14:09:43.624Z,30.50
2018-09-15T14:12:08.029Z,27.10
2018-09-15T14:14:35.491Z,30.00
2018-09-15T14:17:02.973Z,29.70
2018-09-15T14:19:30.389Z,29.50
2018-09-15T14:21:57.853Z,29.30
2018-09-15T14:24:25.282Z,29.00
2018-09-15T14:26:52.791Z,28.90
2018-09-15T14:29:20.213Z,28.70
2018-09-15T14:31:47.724Z,28.50
2018-09-15T14:34:15.145Z,28.50
2018-09-15T14:36:42.632Z,28.40
2018-09-15T14:39:11.088Z,28.70
2018-09-15T14:41:38.511Z,29.00
2018-09-15T14:44:05.969Z,29.30
2018-09-15T14:46:33.412Z,29.70
2018-09-15T14:49:00.826Z,30.10
2018-09-15T14:51:28.291Z,30.50
2018-09-15T14:53:55.687Z,30.90
2018-09-15T14:56:23.216Z,31.20
2018-09-15T14:58:50.522Z,31.50
2018-09-15T15:01:17.964Z,31.80
2018-09-15T15:03:45.395Z,32.10
2018-09-15T15:06:12.893Z,32.30
2018-09-15T15:08:40.358Z,32.50
2018-09-15T15:11:07.786Z,32.70
2018-09-15T15:13:35.260Z,32.80
2018-09-15T15:16:02.706Z,32.90
2018-09-15T15:18:30.153Z,33.00
2018-09-15T15:20:57.592Z,32.90
2018-09-15T15:23:25.020Z,33.10
2018-09-15T15:25:52.485Z,33.10
2018-09-15T15:28:19.924Z,33.20
2018-09-15T15:30:47.350Z,33.10
2018-09-15T15:33:14.758Z,33.20
2018-09-15T15:35:42.251Z,33.10
2018-09-15T15:38:09.721Z,33.00
2018-09-15T15:40:37.173Z,33.00
2018-09-15T15:43:04.878Z,32.90
2018-09-15T15:45:32.327Z,32.80
2018-09-15T15:47:59.878Z,32.70
2018-09-15T15:50:27.388Z,32.60
2018-09-15T15:52:54.814Z,32.50
2018-09-15T15:55:22.211Z,32.30
2018-09-15T15:57:49.640Z,32.10
2018-09-15T16:00:17.010Z,31.90
2018-09-15T16:02:44.440Z,31.60
2018-09-15T16:05:11.849Z,31.30
2018-09-15T16:07:39.337Z,31.10
2018-09-15T16:10:07.073Z,30.70
2018-09-15T16:12:34.548Z,30.50
2018-09-15T16:15:01.954Z,30.20
2018-09-15T16:17:29.477Z,30.00
2018-09-15T16:19:56.861Z,29.70
2018-09-15T16:22:24.412Z,29.40
2018-09-15T16:24:51.832Z,29.20
2018-09-15T16:27:19.303Z,29.00
2018-09-15T16:29:46.735Z,28.70
2018-09-15T16:32:14.195Z,28.60
2018-09-15T16:34:41.634Z,28.40
2018-09-15T16:37:09.063Z,27.00
2018-09-15T16:39:36.523Z,28.00
2018-09-15T16:42:03.956Z,27.80
2018-09-15T16:44:31.356Z,27.70
2018-09-15T16:46:58.742Z,27.50
2018-09-15T16:49:26.159Z,27.40
2018-09-15T16:51:53.579Z,27.20
2018-09-15T16:54:21.021Z,27.10
2018-09-15T16:56:48.519Z,27.00
2018-09-15T16:59:15.887Z,26.90
2018-09-15T17:01:43.313Z,26.80
2018-09-15T17:04:10.769Z,26.60
2018-09-15T17:06:38.228Z,26.50
2018-09-15T17:09:08.149Z,26.40
2018-09-15T17:11:35.632Z,26.40
2018-09-15T17:14:03.107Z,26.30
2018-09-15T17:16:30.657Z,26.20
2018-09-15T17:18:58.029Z,26.10
2018-09-15T17:21:25.475Z,26.10
2018-09-15T17:23:52.893Z,25.90
2018-09-15T17:26:20.357Z,25.90
2018-09-15T17:28:47.890Z,25.80
2018-09-15T17:31:15.443Z,25.70
2018-09-15T17:33:42.811Z,25.60
2018-09-15T17:36:10.245Z,25.60
2018-09-15T17:38:37.670Z,25.50
2018-09-15T17:41:05.112Z,25.40
2018-09-15T17:43:32.547Z,25.40
2018-09-15T17:45:59.994Z,25.30
2018-09-15T17:48:27.433Z,25.30
2018-09-15T17:50:54.973Z,25.30
2018-09-15T17:53:22.407Z,25.20
2018-09-15T17:55:49.840Z,25.10
2018-09-15T17:58:17.620Z,25.10
2018-09-15T18:00:45.098Z,25.10
2018-09-15T18:03:12.537Z,25.00
2018-09-15T18:05:39.973Z,25.00
2018-09-15T18:08:07.415Z,24.90
2018-09-15T18:10:34.905Z,24.80
2018-09-15T18:13:02.579Z,24.80
2018-09-15T18:15:30.139Z,24.80
2018-09-15T18:17:57.597Z,24.70
2018-09-15T18:20:24.999Z,24.70
2018-09-15T18:22:52.459Z,24.60
2018-09-15T18:25:19.909Z,24.50
2018-09-15T18:27:47.352Z,24.50
2018-09-15T18:30:14.810Z,24.40
2018-09-15T18:32:42.927Z,24.40
2018-09-15T18:35:10.344Z,24.30
2018-09-15T18:37:37.772Z,24.30
2018-09-15T18:40:05.247Z,24.20
2018-09-15T18:42:32.681Z,24.10
2018-09-15T18:45:00.113Z,24.10
2018-09-15T18:47:27.577Z,23.80
2018-09-15T18:49:55.038Z,24.00
2018-09-15T18:52:22.486Z,24.00
2018-09-15T18:54:49.965Z,23.90
2018-09-15T18:57:17.361Z,23.90
2018-09-15T18:59:44.916Z,23.90
2018-09-15T19:02:12.399Z,23.90
2018-09-15T19:04:39.838Z,23.80
2018-09-15T19:07:07.300Z,23.80
2018-09-15T19:09:34.781Z,23.80
2018-09-15T19:12:02.241Z,23.80
2018-09-15T19:14:29.694Z,23.80
2018-09-15T19:16:57.165Z,23.80
2018-09-15T19:19:24.646Z,23.80
2018-09-15T19:21:52.076Z,23.80
2018-09-15T19:24:19.500Z,23.80
2018-09-15T19:26:47.080Z,23.80
2018-09-15T19:29:14.440Z,23.80
2018-09-15T19:31:41.877Z,23.70
2018-09-15T19:34:09.343Z,23.70
2018-09-15T19:36:36.818Z,23.70
2018-09-15T19:39:07.772Z,23.70
2018-09-15T19:41:35.203Z,23.60
2018-09-15T19:44:02.666Z,23.60
2018-09-15T19:46:30.163Z,23.60
2018-09-15T19:48:57.588Z,23.50
2018-09-15T19:51:25.081Z,23.50
2018-09-15T19:53:52.549Z,23.50
2018-09-15T19:56:19.985Z,23.40
2018-09-15T19:58:47.450Z,23.40
2018-09-15T20:01:14.926Z,23.30
2018-09-15T20:03:42.536Z,23.30
2018-09-15T20:06:10.045Z,23.30
2018-09-15T20:08:37.435Z,23.20
2018-09-15T20:11:05.227Z,23.20
2018-09-15T20:13:32.670Z,23.10
2018-09-15T20:15:59.155Z,23.10
2018-09-15T20:18:25.571Z,23.00
2018-09-15T20:20:51.973Z,21.30
2018-09-15T20:23:19.478Z,23.00
2018-09-15T20:25:46.990Z,22.90
2018-09-15T20:28:14.520Z,22.90
2018-09-15T20:30:42.153Z,22.90
2018-09-15T20:33:09.603Z,22.80
2018-09-15T20:35:37.086Z,22.80
2018-09-15T20:38:04.789Z,22.70
2018-09-15T20:40:32.343Z,22.70
2018-09-15T20:42:59.747Z,22.70
2018-09-15T20:45:27.172Z,22.60
2018-09-15T20:47:54.698Z,22.60
2018-09-15T20:50:22.147Z,22.50
2018-09-15T20:52:49.584Z,22.50
2018-09-15T20:55:17.073Z,22.50
2018-09-15T20:57:44.582Z,22.40
2018-09-15T21:00:12.104Z,22.40
2018-09-15T21:02:41.704Z,22.40
2018-09-15T21:05:09.594Z,22.40
2018-09-15T21:07:37.090Z,22.30
2018-09-15T21:10:05.938Z,24.10
2018-09-15T21:12:33.422Z,22.30
2018-09-15T21:15:00.955Z,22.20
2018-09-15T21:17:28.457Z,22.20
2018-09-15T21:19:55.934Z,22.20
2018-09-15T21:22:23.430Z,22.10
2018-09-15T21:24:50.874Z,22.10
2018-09-15T21:27:18.319Z,22.10
2018-09-15T21:29:45.812Z,22.10
2018-09-15T21:32:13.276Z,22.00
2018-09-15T21:34:40.686Z,22.00
2018-09-15T21:37:08.864Z,22.00
2018-09-15T21:39:36.271Z,22.00
2018-09-15T21:42:03.786Z,22.00
2018-09-15T21:44:31.193Z,18.50
2018-09-15T21:46:58.692Z,21.90
2018-09-15T21:49:26.137Z,21.90
2018-09-15T21:51:53.597Z,21.90
2018-09-15T21:54:21.029Z,21.80
2018-09-15T21:56:48.457Z,21.80
2018-09-15T21:59:15.901Z,21.80
2018-09-15T22:01:43.311Z,21.80
2018-09-15T22:04:16.429Z,21.70
2018-09-15T22:06:43.861Z,21.70
2018-09-15T22:09:12.664Z,21.70
2018-09-15T22:11:40.566Z,21.70
2018-09-15T22:14:08.032Z,21.60
2018-09-15T22:16:35.427Z,21.60
2018-09-15T22:19:02.858Z,21.50
2018-09-15T22:21:30.265Z,21.60
2018-09-15T22:23:57.723Z,21.60
2018-09-15T22:26:25.151Z,21.60
2018-09-15T22:28:52.549Z,21.50
2018-09-15T22:31:19.943Z,21.50
2018-09-15T22:33:47.409Z,21.50
2018-09-15T22:36:14.840Z,21.40
2018-09-15T22:38:42.266Z,21.40
2018-09-15T22:41:09.722Z,21.40
2018-09-15T22:43:37.247Z,21.20
2018-09-15T22:46:04.655Z,21.40
2018-09-15T22:48:32.071Z,21.40
2018-09-15T22:51:00.373Z,21.40
2018-09-15T22:53:27.793Z,21.30
2018-09-15T22:55:55.217Z,21.30
2018-09-15T22:58:22.617Z,21.30
2018-09-15T23:00:50.070Z,21.30
2018-09-15T23:03:17.515Z,21.20
2018-09-15T23:05:44.945Z,21.20
2018-09-15T23:08:12.401Z,21.20
2018-09-15T23:10:39.825Z,21.20
2018-09-15T23:13:07.256Z,21.10
2018-09-15T23:15:34.694Z,21.10
2018-09-15T23:18:02.141Z,21.10
2018-09-15T23:20:29.557Z,21.10
2018-09-15T23:22:57.029Z,21.00
2018-09-15T23:25:24.467Z,21.00
2018-09-15T23:27:51.875Z,21.00
2018-09-15T23:30:19.309Z,21.00
2018-09-15T23:32:46.701Z,21.00
2018-09-15T23:35:14.150Z,20.90
2018-09-15T23:37:41.586Z,20.90
2018-09-15T23:40:08.993Z,20.90
2018-09-15T23:42:36.444Z,20.90
2018-09-15T23:45:03.980Z,20.90
2018-09-15T23:47:31.399Z,20.90
2018-09-15T23:49:58.837Z,20.80
2018-09-15T23:52:26.274Z,20.80
2018-09-15T23:54:53.710Z,20.80
2018-09-15T23:57:21.178Z,20.80
2018-09-15T23:59:48.604Z,20.80
